sensor_id;sensor_type;location;lat;lon;timestamp;P1;durP1;ratioP1;P2;durP2;ratioP2
84682;SDS011;74905;44.124;18.116;2023-12-28T00:01:50;216.52;;;69.72;;
84682;SDS011;74905;44.124;18.116;2023-12-28T00:04:16;253.20;;;73.88;;
84682;SDS011;74905;44.124;18.116;2023-12-28T00:06:43;218.63;;;68.20;;
84682;SDS011;74905;44.124;18.116;2023-12-28T00:09:08;259.60;;;70.55;;
84682;SDS011;74905;44.124;18.116;2023-12-28T00:11:35;312.10;;;76.47;;
84682;SDS011;74905;44.124;18.116;2023-12-28T00:14:00;247.68;;;70.75;;
84682;SDS011;74905;44.124;18.116;2023-12-28T00:16:27;234.65;;;70.88;;
84682;SDS011;74905;44.124;18.116;2023-12-28T00:18:52;235.07;;;69.18;;
84682;SDS011;74905;44.124;18.116;2023-12-28T00:21:18;197.73;;;64.18;;
84682;SDS011;74905;44.124;18.116;2023-12-28T00:23:44;212.75;;;63.03;;
84682;SDS011;74905;44.124;18.116;2023-12-28T00:26:09;207.75;;;67.28;;
84682;SDS011;74905;44.124;18.116;2023-12-28T00:28:35;180.15;;;59.45;;
84682;SDS011;74905;44.124;18.116;2023-12-28T00:31:01;160.65;;;54.65;;
84682;SDS011;74905;44.124;18.116;2023-12-28T00:33:27;186.90;;;57.53;;
84682;SDS011;74905;44.124;18.116;2023-12-28T00:35:52;208.13;;;56.45;;
84682;SDS011;74905;44.124;18.116;2023-12-28T00:38:18;190.63;;;58.10;;
84682;SDS011;74905;44.124;18.116;2023-12-28T00:40:44;186.88;;;58.33;;
84682;SDS011;74905;44.124;18.116;2023-12-28T00:43:09;179.57;;;57.50;;
84682;SDS011;74905;44.124;18.116;2023-12-28T00:45:35;165.07;;;53.22;;
84682;SDS011;74905;44.124;18.116;2023-12-28T00:48:00;159.68;;;51.72;;
84682;SDS011;74905;44.124;18.116;2023-12-28T00:50:26;203.30;;;55.85;;
84682;SDS011;74905;44.124;18.116;2023-12-28T00:52:56;195.68;;;55.45;;
84682;SDS011;74905;44.124;18.116;2023-12-28T00:55:22;198.43;;;54.20;;
84682;SDS011;74905;44.124;18.116;2023-12-28T00:57:48;168.90;;;52.40;;
84682;SDS011;74905;44.124;18.116;2023-12-28T01:00:13;169.35;;;52.15;;
84682;SDS011;74905;44.124;18.116;2023-12-28T01:02:41;153.80;;;50.83;;
84682;SDS011;74905;44.124;18.116;2023-12-28T01:05:07;170.27;;;51.55;;
84682;SDS011;74905;44.124;18.116;2023-12-28T01:07:32;166.63;;;52.88;;
84682;SDS011;74905;44.124;18.116;2023-12-28T01:09:58;206.25;;;56.00;;
84682;SDS011;74905;44.124;18.116;2023-12-28T01:12:24;188.55;;;56.97;;
84682;SDS011;74905;44.124;18.116;2023-12-28T01:14:49;154.85;;;52.65;;
84682;SDS011;74905;44.124;18.116;2023-12-28T01:17:15;152.50;;;50.92;;
84682;SDS011;74905;44.124;18.116;2023-12-28T01:19:41;144.43;;;51.47;;
84682;SDS011;74905;44.124;18.116;2023-12-28T01:22:06;154.82;;;50.92;;
84682;SDS011;74905;44.124;18.116;2023-12-28T01:24:32;130.13;;;46.40;;
84682;SDS011;74905;44.124;18.116;2023-12-28T01:26:58;150.52;;;48.58;;
84682;SDS011;74905;44.124;18.116;2023-12-28T01:29:23;139.57;;;46.80;;
84682;SDS011;74905;44.124;18.116;2023-12-28T01:31:49;140.75;;;48.55;;
84682;SDS011;74905;44.124;18.116;2023-12-28T01:34:15;120.40;;;47.88;;
84682;SDS011;74905;44.124;18.116;2023-12-28T01:36:40;137.05;;;48.83;;
84682;SDS011;74905;44.124;18.116;2023-12-28T01:39:09;164.77;;;49.03;;
84682;SDS011;74905;44.124;18.116;2023-12-28T01:44:01;115.50;;;45.10;;
84682;SDS011;74905;44.124;18.116;2023-12-28T01:46:27;158.00;;;44.10;;
84682;SDS011;74905;44.124;18.116;2023-12-28T01:48:53;143.93;;;45.47;;
84682;SDS011;74905;44.124;18.116;2023-12-28T01:51:20;116.05;;;42.00;;
84682;SDS011;74905;44.124;18.116;2023-12-28T01:53:47;145.80;;;41.83;;
84682;SDS011;74905;44.124;18.116;2023-12-28T01:56:15;145.25;;;43.45;;
84682;SDS011;74905;44.124;18.116;2023-12-28T01:58:42;153.68;;;43.95;;
84682;SDS011;74905;44.124;18.116;2023-12-28T02:01:10;134.43;;;40.33;;
84682;SDS011;74905;44.124;18.116;2023-12-28T02:03:36;137.93;;;43.20;;
84682;SDS011;74905;44.124;18.116;2023-12-28T02:06:02;151.55;;;41.38;;
84682;SDS011;74905;44.124;18.116;2023-12-28T02:08:28;186.80;;;45.03;;
84682;SDS011;74905;44.124;18.116;2023-12-28T02:10:54;133.90;;;41.42;;
84682;SDS011;74905;44.124;18.116;2023-12-28T02:13:23;145.90;;;42.05;;
84682;SDS011;74905;44.124;18.116;2023-12-28T02:18:42;137.43;;;40.72;;
84682;SDS011;74905;44.124;18.116;2023-12-28T02:21:09;145.60;;;42.10;;
84682;SDS011;74905;44.124;18.116;2023-12-28T02:23:38;116.18;;;39.13;;
84682;SDS011;74905;44.124;18.116;2023-12-28T02:26:03;127.03;;;42.03;;
84682;SDS011;74905;44.124;18.116;2023-12-28T02:28:29;136.10;;;39.55;;
84682;SDS011;74905;44.124;18.116;2023-12-28T02:30:54;111.38;;;37.15;;
84682;SDS011;74905;44.124;18.116;2023-12-28T02:36:20;98.13;;;34.90;;
84682;SDS011;74905;44.124;18.116;2023-12-28T02:38:49;117.55;;;36.47;;
84682;SDS011;74905;44.124;18.116;2023-12-28T02:41:17;117.75;;;35.70;;
84682;SDS011;74905;44.124;18.116;2023-12-28T02:43:43;98.55;;;32.58;;
84682;SDS011;74905;44.124;18.116;2023-12-28T02:46:09;89.80;;;32.92;;
84682;SDS011;74905;44.124;18.116;2023-12-28T02:48:35;89.45;;;31.58;;
84682;SDS011;74905;44.124;18.116;2023-12-28T02:51:01;101.65;;;33.10;;
84682;SDS011;74905;44.124;18.116;2023-12-28T02:53:26;98.32;;;37.75;;
84682;SDS011;74905;44.124;18.116;2023-12-28T02:55:52;105.13;;;34.95;;
84682;SDS011;74905;44.124;18.116;2023-12-28T02:58:17;76.88;;;29.50;;
84682;SDS011;74905;44.124;18.116;2023-12-28T03:00:44;78.00;;;28.38;;
84682;SDS011;74905;44.124;18.116;2023-12-28T03:03:10;79.25;;;30.95;;
84682;SDS011;74905;44.124;18.116;2023-12-28T03:05:36;81.13;;;29.88;;
84682;SDS011;74905;44.124;18.116;2023-12-28T03:08:01;69.53;;;29.33;;
84682;SDS011;74905;44.124;18.116;2023-12-28T03:10:27;76.43;;;30.15;;
84682;SDS011;74905;44.124;18.116;2023-12-28T03:12:53;84.03;;;33.53;;
84682;SDS011;74905;44.124;18.116;2023-12-28T03:15:18;91.07;;;37.25;;
84682;SDS011;74905;44.124;18.116;2023-12-28T03:17:44;96.15;;;39.53;;
84682;SDS011;74905;44.124;18.116;2023-12-28T03:20:09;107.88;;;40.80;;
84682;SDS011;74905;44.124;18.116;2023-12-28T03:22:36;101.85;;;41.15;;
84682;SDS011;74905;44.124;18.116;2023-12-28T03:25:02;109.75;;;41.72;;
84682;SDS011;74905;44.124;18.116;2023-12-28T03:27:30;122.57;;;42.30;;
84682;SDS011;74905;44.124;18.116;2023-12-28T03:29:55;118.47;;;40.75;;
84682;SDS011;74905;44.124;18.116;2023-12-28T03:32:21;89.97;;;34.90;;
84682;SDS011;74905;44.124;18.116;2023-12-28T03:34:48;103.30;;;39.22;;
84682;SDS011;74905;44.124;18.116;2023-12-28T03:37:14;94.05;;;37.03;;
84682;SDS011;74905;44.124;18.116;2023-12-28T03:39:39;107.18;;;38.25;;
84682;SDS011;74905;44.124;18.116;2023-12-28T03:42:05;102.13;;;36.42;;
84682;SDS011;74905;44.124;18.116;2023-12-28T03:44:31;74.32;;;28.73;;
84682;SDS011;74905;44.124;18.116;2023-12-28T03:46:56;64.57;;;27.60;;
84682;SDS011;74905;44.124;18.116;2023-12-28T03:49:22;78.35;;;28.20;;
84682;SDS011;74905;44.124;18.116;2023-12-28T03:51:49;82.20;;;29.55;;
84682;SDS011;74905;44.124;18.116;2023-12-28T03:54:18;77.95;;;28.77;;
84682;SDS011;74905;44.124;18.116;2023-12-28T03:56:45;70.80;;;27.30;;
84682;SDS011;74905;44.124;18.116;2023-12-28T03:59:11;61.60;;;27.42;;
84682;SDS011;74905;44.124;18.116;2023-12-28T04:01:37;69.28;;;26.70;;
84682;SDS011;74905;44.124;18.116;2023-12-28T04:04:03;75.05;;;30.77;;
84682;SDS011;74905;44.124;18.116;2023-12-28T04:06:29;72.22;;;27.45;;
84682;SDS011;74905;44.124;18.116;2023-12-28T04:08:56;62.97;;;27.73;;
84682;SDS011;74905;44.124;18.116;2023-12-28T04:11:22;81.43;;;27.45;;
84682;SDS011;74905;44.124;18.116;2023-12-28T04:13:48;72.45;;;26.95;;
84682;SDS011;74905;44.124;18.116;2023-12-28T04:16:14;99.63;;;30.20;;
84682;SDS011;74905;44.124;18.116;2023-12-28T04:18:43;77.63;;;30.88;;
84682;SDS011;74905;44.124;18.116;2023-12-28T04:21:12;67.30;;;29.23;;
84682;SDS011;74905;44.124;18.116;2023-12-28T04:23:39;58.63;;;23.50;;
84682;SDS011;74905;44.124;18.116;2023-12-28T04:26:06;52.67;;;22.77;;
84682;SDS011;74905;44.124;18.116;2023-12-28T04:28:32;51.08;;;23.00;;
84682;SDS011;74905;44.124;18.116;2023-12-28T04:31:06;55.92;;;21.98;;
84682;SDS011;74905;44.124;18.116;2023-12-28T04:33:32;53.50;;;20.95;;
84682;SDS011;74905;44.124;18.116;2023-12-28T04:36:01;49.38;;;21.25;;
84682;SDS011;74905;44.124;18.116;2023-12-28T04:38:31;50.33;;;22.83;;
84682;SDS011;74905;44.124;18.116;2023-12-28T04:40:58;47.30;;;21.33;;
84682;SDS011;74905;44.124;18.116;2023-12-28T04:43:24;39.03;;;19.20;;
84682;SDS011;74905;44.124;18.116;2023-12-28T04:45:50;40.05;;;19.58;;
84682;SDS011;74905;44.124;18.116;2023-12-28T04:48:16;50.67;;;20.90;;
84682;SDS011;74905;44.124;18.116;2023-12-28T04:50:46;45.83;;;19.23;;
84682;SDS011;74905;44.124;18.116;2023-12-28T04:53:13;43.95;;;20.75;;
84682;SDS011;74905;44.124;18.116;2023-12-28T04:55:39;43.95;;;19.58;;
84682;SDS011;74905;44.124;18.116;2023-12-28T04:58:04;44.78;;;19.67;;
84682;SDS011;74905;44.124;18.116;2023-12-28T05:00:30;48.58;;;20.45;;
84682;SDS011;74905;44.124;18.116;2023-12-28T05:02:55;50.22;;;20.27;;
84682;SDS011;74905;44.124;18.116;2023-12-28T05:05:22;56.17;;;23.13;;
84682;SDS011;74905;44.124;18.116;2023-12-28T05:07:47;55.97;;;22.60;;
84682;SDS011;74905;44.124;18.116;2023-12-28T05:10:13;72.82;;;25.17;;
84682;SDS011;74905;44.124;18.116;2023-12-28T05:12:39;52.05;;;22.75;;
84682;SDS011;74905;44.124;18.116;2023-12-28T05:15:04;76.57;;;24.45;;
84682;SDS011;74905;44.124;18.116;2023-12-28T05:17:30;56.97;;;26.13;;
84682;SDS011;74905;44.124;18.116;2023-12-28T05:19:56;65.55;;;24.92;;
84682;SDS011;74905;44.124;18.116;2023-12-28T05:22:21;73.22;;;25.73;;
84682;SDS011;74905;44.124;18.116;2023-12-28T05:24:47;63.70;;;26.25;;
84682;SDS011;74905;44.124;18.116;2023-12-28T05:27:13;59.08;;;24.38;;
84682;SDS011;74905;44.124;18.116;2023-12-28T05:29:38;68.35;;;25.20;;
84682;SDS011;74905;44.124;18.116;2023-12-28T05:32:04;58.20;;;23.70;;
84682;SDS011;74905;44.124;18.116;2023-12-28T05:34:30;67.05;;;24.48;;
84682;SDS011;74905;44.124;18.116;2023-12-28T05:36:56;68.70;;;26.17;;
84682;SDS011;74905;44.124;18.116;2023-12-28T05:39:21;68.40;;;26.40;;
84682;SDS011;74905;44.124;18.116;2023-12-28T05:41:47;64.90;;;25.75;;
84682;SDS011;74905;44.124;18.116;2023-12-28T05:44:16;60.50;;;21.75;;
84682;SDS011;74905;44.124;18.116;2023-12-28T05:46:42;63.85;;;23.80;;
84682;SDS011;74905;44.124;18.116;2023-12-28T05:49:08;56.88;;;23.67;;
84682;SDS011;74905;44.124;18.116;2023-12-28T05:51:37;55.05;;;20.27;;
84682;SDS011;74905;44.124;18.116;2023-12-28T05:54:05;57.80;;;22.33;;
84682;SDS011;74905;44.124;18.116;2023-12-28T05:56:30;64.35;;;22.90;;
84682;SDS011;74905;44.124;18.116;2023-12-28T06:01:27;90.22;;;25.70;;
84682;SDS011;74905;44.124;18.116;2023-12-28T06:03:53;65.43;;;25.15;;
84682;SDS011;74905;44.124;18.116;2023-12-28T06:06:19;58.22;;;23.27;;
84682;SDS011;74905;44.124;18.116;2023-12-28T06:08:45;66.25;;;25.02;;
84682;SDS011;74905;44.124;18.116;2023-12-28T06:11:11;78.78;;;23.95;;
84682;SDS011;74905;44.124;18.116;2023-12-28T06:13:37;63.70;;;24.38;;
84682;SDS011;74905;44.124;18.116;2023-12-28T06:16:03;85.15;;;27.08;;
84682;SDS011;74905;44.124;18.116;2023-12-28T06:18:29;69.88;;;26.35;;
84682;SDS011;74905;44.124;18.116;2023-12-28T06:20:54;78.07;;;28.13;;
84682;SDS011;74905;44.124;18.116;2023-12-28T06:23:20;76.53;;;27.38;;
84682;SDS011;74905;44.124;18.116;2023-12-28T06:25:46;86.97;;;25.23;;
84682;SDS011;74905;44.124;18.116;2023-12-28T06:28:12;77.40;;;26.50;;
84682;SDS011;74905;44.124;18.116;2023-12-28T06:30:38;80.50;;;27.05;;
84682;SDS011;74905;44.124;18.116;2023-12-28T06:33:05;66.55;;;24.58;;
84682;SDS011;74905;44.124;18.116;2023-12-28T06:35:30;60.30;;;24.85;;
84682;SDS011;74905;44.124;18.116;2023-12-28T06:37:56;82.40;;;26.90;;
84682;SDS011;74905;44.124;18.116;2023-12-28T06:40:22;57.33;;;22.60;;
84682;SDS011;74905;44.124;18.116;2023-12-28T06:42:47;76.15;;;25.88;;
84682;SDS011;74905;44.124;18.116;2023-12-28T06:45:13;67.40;;;24.25;;
84682;SDS011;74905;44.124;18.116;2023-12-28T06:47:39;58.58;;;22.05;;
84682;SDS011;74905;44.124;18.116;2023-12-28T06:52:36;72.63;;;23.20;;
84682;SDS011;74905;44.124;18.116;2023-12-28T06:55:02;59.35;;;21.70;;
84682;SDS011;74905;44.124;18.116;2023-12-28T06:57:28;52.75;;;20.73;;
84682;SDS011;74905;44.124;18.116;2023-12-28T06:59:53;97.78;;;26.45;;
84682;SDS011;74905;44.124;18.116;2023-12-28T07:02:25;65.25;;;24.30;;
84682;SDS011;74905;44.124;18.116;2023-12-28T07:04:50;83.28;;;22.90;;
84682;SDS011;74905;44.124;18.116;2023-12-28T07:07:16;64.70;;;25.00;;
84682;SDS011;74905;44.124;18.116;2023-12-28T07:09:41;67.50;;;24.38;;
84682;SDS011;74905;44.124;18.116;2023-12-28T07:12:07;78.90;;;24.80;;
84682;SDS011;74905;44.124;18.116;2023-12-28T07:14:33;68.75;;;25.88;;
84682;SDS011;74905;44.124;18.116;2023-12-28T07:17:01;68.43;;;25.10;;
84682;SDS011;74905;44.124;18.116;2023-12-28T07:19:27;78.55;;;26.98;;
84682;SDS011;74905;44.124;18.116;2023-12-28T07:21:56;82.40;;;28.10;;
84682;SDS011;74905;44.124;18.116;2023-12-28T07:24:23;92.13;;;31.73;;
84682;SDS011;74905;44.124;18.116;2023-12-28T07:26:49;82.10;;;28.30;;
84682;SDS011;74905;44.124;18.116;2023-12-28T07:29:15;77.53;;;26.85;;
84682;SDS011;74905;44.124;18.116;2023-12-28T07:31:44;84.70;;;31.60;;
84682;SDS011;74905;44.124;18.116;2023-12-28T07:34:10;87.13;;;29.63;;
84682;SDS011;74905;44.124;18.116;2023-12-28T07:36:35;95.28;;;30.25;;
84682;SDS011;74905;44.124;18.116;2023-12-28T07:39:01;69.32;;;27.13;;
84682;SDS011;74905;44.124;18.116;2023-12-28T07:41:28;84.60;;;30.80;;
84682;SDS011;74905;44.124;18.116;2023-12-28T07:43:54;74.50;;;27.20;;
84682;SDS011;74905;44.124;18.116;2023-12-28T07:46:20;66.75;;;26.52;;
84682;SDS011;74905;44.124;18.116;2023-12-28T07:48:46;69.22;;;25.27;;
84682;SDS011;74905;44.124;18.116;2023-12-28T07:51:13;57.78;;;22.80;;
84682;SDS011;74905;44.124;18.116;2023-12-28T07:53:38;53.88;;;21.70;;
84682;SDS011;74905;44.124;18.116;2023-12-28T07:56:04;62.90;;;24.92;;
84682;SDS011;74905;44.124;18.116;2023-12-28T07:58:30;60.30;;;28.75;;
84682;SDS011;74905;44.124;18.116;2023-12-28T08:00:56;62.38;;;22.98;;
84682;SDS011;74905;44.124;18.116;2023-12-28T08:03:21;62.40;;;23.10;;
84682;SDS011;74905;44.124;18.116;2023-12-28T08:05:47;66.63;;;23.55;;
84682;SDS011;74905;44.124;18.116;2023-12-28T08:08:13;69.63;;;23.80;;
84682;SDS011;74905;44.124;18.116;2023-12-28T08:10:38;59.95;;;23.75;;
84682;SDS011;74905;44.124;18.116;2023-12-28T08:13:04;83.82;;;29.15;;
84682;SDS011;74905;44.124;18.116;2023-12-28T08:15:30;138.90;;;42.15;;
84682;SDS011;74905;44.124;18.116;2023-12-28T08:17:56;129.52;;;43.97;;
84682;SDS011;74905;44.124;18.116;2023-12-28T08:20:21;120.55;;;39.08;;
84682;SDS011;74905;44.124;18.116;2023-12-28T08:22:47;87.03;;;32.30;;
84682;SDS011;74905;44.124;18.116;2023-12-28T08:25:12;83.95;;;31.08;;
84682;SDS011;74905;44.124;18.116;2023-12-28T08:27:40;95.65;;;30.92;;
84682;SDS011;74905;44.124;18.116;2023-12-28T08:30:07;97.40;;;29.95;;
84682;SDS011;74905;44.124;18.116;2023-12-28T08:32:33;101.20;;;32.13;;
84682;SDS011;74905;44.124;18.116;2023-12-28T08:34:59;90.45;;;31.55;;
84682;SDS011;74905;44.124;18.116;2023-12-28T08:37:24;84.50;;;30.33;;
84682;SDS011;74905;44.124;18.116;2023-12-28T08:39:50;111.85;;;35.20;;
84682;SDS011;74905;44.124;18.116;2023-12-28T08:42:16;90.40;;;33.00;;
84682;SDS011;74905;44.124;18.116;2023-12-28T08:44:41;103.35;;;31.25;;
84682;SDS011;74905;44.124;18.116;2023-12-28T08:47:07;94.13;;;32.33;;
84682;SDS011;74905;44.124;18.116;2023-12-28T08:49:33;78.85;;;31.02;;
84682;SDS011;74905;44.124;18.116;2023-12-28T08:51:59;75.70;;;31.13;;
84682;SDS011;74905;44.124;18.116;2023-12-28T08:54:24;75.53;;;32.88;;
84682;SDS011;74905;44.124;18.116;2023-12-28T08:56:50;79.95;;;28.65;;
84682;SDS011;74905;44.124;18.116;2023-12-28T08:59:15;73.35;;;29.30;;
84682;SDS011;74905;44.124;18.116;2023-12-28T09:01:41;75.32;;;28.83;;
84682;SDS011;74905;44.124;18.116;2023-12-28T09:04:07;71.28;;;28.85;;
84682;SDS011;74905;44.124;18.116;2023-12-28T09:06:32;71.65;;;28.20;;
84682;SDS011;74905;44.124;18.116;2023-12-28T09:08:58;69.57;;;28.85;;
84682;SDS011;74905;44.124;18.116;2023-12-28T09:11:24;76.68;;;29.88;;
84682;SDS011;74905;44.124;18.116;2023-12-28T09:13:50;111.72;;;33.25;;
84682;SDS011;74905;44.124;18.116;2023-12-28T09:16:16;94.40;;;32.58;;
84682;SDS011;74905;44.124;18.116;2023-12-28T09:18:44;90.78;;;32.00;;
84682;SDS011;74905;44.124;18.116;2023-12-28T09:21:13;90.72;;;30.92;;
84682;SDS011;74905;44.124;18.116;2023-12-28T09:23:38;109.30;;;30.98;;
84682;SDS011;74905;44.124;18.116;2023-12-28T09:26:05;85.43;;;32.45;;
84682;SDS011;74905;44.124;18.116;2023-12-28T09:28:34;78.65;;;32.08;;
84682;SDS011;74905;44.124;18.116;2023-12-28T09:31:00;95.18;;;36.15;;
84682;SDS011;74905;44.124;18.116;2023-12-28T09:33:27;101.53;;;34.20;;
84682;SDS011;74905;44.124;18.116;2023-12-28T09:38:45;88.47;;;32.00;;
84682;SDS011;74905;44.124;18.116;2023-12-28T09:41:11;80.60;;;31.42;;
84682;SDS011;74905;44.124;18.116;2023-12-28T09:44:04;88.00;;;32.33;;
84682;SDS011;74905;44.124;18.116;2023-12-28T09:46:36;84.28;;;30.23;;
84682;SDS011;74905;44.124;18.116;2023-12-28T09:49:11;84.57;;;31.05;;
84682;SDS011;74905;44.124;18.116;2023-12-28T09:54:47;92.00;;;31.65;;
84682;SDS011;74905;44.124;18.116;2023-12-28T09:57:12;96.43;;;31.58;;
84682;SDS011;74905;44.124;18.116;2023-12-28T09:59:38;90.20;;;33.17;;
84682;SDS011;74905;44.124;18.116;2023-12-28T10:02:05;83.97;;;31.88;;
84682;SDS011;74905;44.124;18.116;2023-12-28T10:04:32;87.88;;;33.15;;
84682;SDS011;74905;44.124;18.116;2023-12-28T10:06:58;85.05;;;31.80;;
84682;SDS011;74905;44.124;18.116;2023-12-28T10:09:23;87.20;;;32.50;;
84682;SDS011;74905;44.124;18.116;2023-12-28T10:11:52;82.22;;;30.73;;
84682;SDS011;74905;44.124;18.116;2023-12-28T10:14:19;94.45;;;31.48;;
84682;SDS011;74905;44.124;18.116;2023-12-28T10:16:46;93.28;;;30.88;;
84682;SDS011;74905;44.124;18.116;2023-12-28T10:19:15;87.38;;;32.20;;
84682;SDS011;74905;44.124;18.116;2023-12-28T10:21:43;106.63;;;34.20;;
84682;SDS011;74905;44.124;18.116;2023-12-28T10:24:09;91.82;;;32.35;;
84682;SDS011;74905;44.124;18.116;2023-12-28T10:26:36;89.35;;;35.95;;
84682;SDS011;74905;44.124;18.116;2023-12-28T10:29:01;93.13;;;37.25;;
84682;SDS011;74905;44.124;18.116;2023-12-28T10:31:28;93.82;;;35.95;;
84682;SDS011;74905;44.124;18.116;2023-12-28T10:33:58;78.53;;;31.63;;
84682;SDS011;74905;44.124;18.116;2023-12-28T10:36:27;93.60;;;30.83;;
84682;SDS011;74905;44.124;18.116;2023-12-28T10:38:54;89.53;;;34.38;;
84682;SDS011;74905;44.124;18.116;2023-12-28T10:41:19;84.20;;;32.03;;
84682;SDS011;74905;44.124;18.116;2023-12-28T10:46:31;77.68;;;31.08;;
84682;SDS011;74905;44.124;18.116;2023-12-28T10:49:40;100.13;;;37.90;;
84682;SDS011;74905;44.124;18.116;2023-12-28T10:51:51;84.35;;;35.20;;
84682;SDS011;74905;44.124;18.116;2023-12-28T11:02:45;87.65;;;33.80;;
84682;SDS011;74905;44.124;18.116;2023-12-28T11:05:16;79.38;;;30.63;;
84682;SDS011;74905;44.124;18.116;2023-12-28T11:07:43;69.20;;;32.38;;
84682;SDS011;74905;44.124;18.116;2023-12-28T11:10:10;91.20;;;35.67;;
84682;SDS011;74905;44.124;18.116;2023-12-28T11:12:39;91.90;;;36.22;;
84682;SDS011;74905;44.124;18.116;2023-12-28T11:15:15;94.72;;;37.03;;
84682;SDS011;74905;44.124;18.116;2023-12-28T11:18:03;82.43;;;35.25;;
84682;SDS011;74905;44.124;18.116;2023-12-28T11:20:29;88.25;;;34.83;;
84682;SDS011;74905;44.124;18.116;2023-12-28T11:22:55;90.93;;;35.22;;
84682;SDS011;74905;44.124;18.116;2023-12-28T11:25:22;90.22;;;34.97;;
84682;SDS011;74905;44.124;18.116;2023-12-28T11:27:48;91.60;;;36.90;;
84682;SDS011;74905;44.124;18.116;2023-12-28T11:30:14;89.30;;;37.55;;
84682;SDS011;74905;44.124;18.116;2023-12-28T11:32:40;97.43;;;38.03;;
84682;SDS011;74905;44.124;18.116;2023-12-28T11:35:09;106.50;;;41.10;;
84682;SDS011;74905;44.124;18.116;2023-12-28T11:37:37;102.43;;;40.90;;
84682;SDS011;74905;44.124;18.116;2023-12-28T11:40:12;102.85;;;38.83;;
84682;SDS011;74905;44.124;18.116;2023-12-28T11:42:51;116.18;;;41.50;;
84682;SDS011;74905;44.124;18.116;2023-12-28T11:45:19;109.28;;;41.95;;
84682;SDS011;74905;44.124;18.116;2023-12-28T11:47:46;113.75;;;44.72;;
84682;SDS011;74905;44.124;18.116;2023-12-28T11:50:12;124.07;;;47.95;;
84682;SDS011;74905;44.124;18.116;2023-12-28T11:52:39;125.35;;;46.20;;
84682;SDS011;74905;44.124;18.116;2023-12-28T11:55:05;136.27;;;49.35;;
84682;SDS011;74905;44.124;18.116;2023-12-28T11:57:31;115.72;;;44.70;;
84682;SDS011;74905;44.124;18.116;2023-12-28T11:59:59;113.63;;;45.65;;
84682;SDS011;74905;44.124;18.116;2023-12-28T12:02:30;130.68;;;44.08;;
84682;SDS011;74905;44.124;18.116;2023-12-28T12:04:56;118.97;;;47.40;;
84682;SDS011;74905;44.124;18.116;2023-12-28T12:07:27;121.22;;;45.05;;
84682;SDS011;74905;44.124;18.116;2023-12-28T12:09:56;123.15;;;51.25;;
84682;SDS011;74905;44.124;18.116;2023-12-28T12:12:26;129.50;;;49.17;;
84682;SDS011;74905;44.124;18.116;2023-12-28T12:14:51;127.35;;;49.78;;
84682;SDS011;74905;44.124;18.116;2023-12-28T12:17:17;132.63;;;50.88;;
84682;SDS011;74905;44.124;18.116;2023-12-28T12:22:16;127.70;;;48.33;;
84682;SDS011;74905;44.124;18.116;2023-12-28T12:24:46;135.45;;;51.65;;
84682;SDS011;74905;44.124;18.116;2023-12-28T12:27:14;130.23;;;51.50;;
84682;SDS011;74905;44.124;18.116;2023-12-28T12:29:39;149.27;;;57.17;;
84682;SDS011;74905;44.124;18.116;2023-12-28T12:32:05;182.43;;;64.80;;
84682;SDS011;74905;44.124;18.116;2023-12-28T12:34:32;193.52;;;66.30;;
84682;SDS011;74905;44.124;18.116;2023-12-28T12:36:58;248.38;;;82.20;;
84682;SDS011;74905;44.124;18.116;2023-12-28T12:39:25;225.65;;;79.90;;
84682;SDS011;74905;44.124;18.116;2023-12-28T12:41:51;250.57;;;86.70;;
84682;SDS011;74905;44.124;18.116;2023-12-28T12:44:19;241.80;;;85.57;;
84682;SDS011;74905;44.124;18.116;2023-12-28T12:46:46;228.60;;;81.35;;
84682;SDS011;74905;44.124;18.116;2023-12-28T12:49:13;212.80;;;80.75;;
84682;SDS011;74905;44.124;18.116;2023-12-28T12:51:38;215.82;;;80.97;;
84682;SDS011;74905;44.124;18.116;2023-12-28T12:54:05;226.93;;;85.00;;
84682;SDS011;74905;44.124;18.116;2023-12-28T12:56:34;230.07;;;83.20;;
84682;SDS011;74905;44.124;18.116;2023-12-28T12:59:00;215.23;;;79.68;;
84682;SDS011;74905;44.124;18.116;2023-12-28T13:01:25;221.88;;;82.93;;
84682;SDS011;74905;44.124;18.116;2023-12-28T13:03:51;218.15;;;81.70;;
84682;SDS011;74905;44.124;18.116;2023-12-28T13:06:17;213.65;;;77.32;;
84682;SDS011;74905;44.124;18.116;2023-12-28T13:08:43;214.45;;;79.38;;
84682;SDS011;74905;44.124;18.116;2023-12-28T13:11:09;213.88;;;81.43;;
84682;SDS011;74905;44.124;18.116;2023-12-28T13:13:35;225.85;;;81.75;;
84682;SDS011;74905;44.124;18.116;2023-12-28T13:16:02;211.38;;;74.35;;
84682;SDS011;74905;44.124;18.116;2023-12-28T13:18:28;205.32;;;78.82;;
84682;SDS011;74905;44.124;18.116;2023-12-28T13:20:54;217.75;;;79.45;;
84682;SDS011;74905;44.124;18.116;2023-12-28T13:25:49;242.48;;;84.32;;
84682;SDS011;74905;44.124;18.116;2023-12-28T13:28:15;242.85;;;88.25;;
84682;SDS011;74905;44.124;18.116;2023-12-28T13:30:41;219.20;;;83.22;;
84682;SDS011;74905;44.124;18.116;2023-12-28T13:33:06;222.05;;;82.40;;
84682;SDS011;74905;44.124;18.116;2023-12-28T13:35:32;224.70;;;83.03;;
84682;SDS011;74905;44.124;18.116;2023-12-28T13:38:01;223.65;;;82.05;;
84682;SDS011;74905;44.124;18.116;2023-12-28T13:40:27;216.82;;;82.13;;
84682;SDS011;74905;44.124;18.116;2023-12-28T13:42:53;217.93;;;78.13;;
84682;SDS011;74905;44.124;18.116;2023-12-28T13:45:19;229.10;;;82.68;;
84682;SDS011;74905;44.124;18.116;2023-12-28T13:47:45;243.23;;;88.85;;
84682;SDS011;74905;44.124;18.116;2023-12-28T13:50:10;251.05;;;90.22;;
84682;SDS011;74905;44.124;18.116;2023-12-28T13:52:36;255.82;;;91.80;;
84682;SDS011;74905;44.124;18.116;2023-12-28T13:55:02;266.05;;;95.50;;
84682;SDS011;74905;44.124;18.116;2023-12-28T13:57:28;286.98;;;98.45;;
84682;SDS011;74905;44.124;18.116;2023-12-28T13:59:54;257.92;;;95.75;;
84682;SDS011;74905;44.124;18.116;2023-12-28T14:02:21;262.08;;;92.78;;
84682;SDS011;74905;44.124;18.116;2023-12-28T14:04:47;244.35;;;82.35;;
84682;SDS011;74905;44.124;18.116;2023-12-28T14:07:12;241.48;;;78.95;;
84682;SDS011;74905;44.124;18.116;2023-12-28T14:09:38;251.45;;;80.80;;
84682;SDS011;74905;44.124;18.116;2023-12-28T14:12:05;252.18;;;81.40;;
84682;SDS011;74905;44.124;18.116;2023-12-28T14:14:31;273.50;;;86.40;;
84682;SDS011;74905;44.124;18.116;2023-12-28T14:16:57;281.02;;;89.10;;
84682;SDS011;74905;44.124;18.116;2023-12-28T14:19:23;260.38;;;87.60;;
84682;SDS011;74905;44.124;18.116;2023-12-28T14:21:49;238.98;;;87.20;;
84682;SDS011;74905;44.124;18.116;2023-12-28T14:24:15;237.15;;;86.22;;
84682;SDS011;74905;44.124;18.116;2023-12-28T14:26:41;264.90;;;86.93;;
84682;SDS011;74905;44.124;18.116;2023-12-28T14:29:09;279.42;;;88.93;;
84682;SDS011;74905;44.124;18.116;2023-12-28T14:31:35;239.88;;;89.55;;
84682;SDS011;74905;44.124;18.116;2023-12-28T14:34:01;261.17;;;86.53;;
84682;SDS011;74905;44.124;18.116;2023-12-28T14:36:34;286.17;;;87.85;;